createdAt,value
2018-10-09T00:01:16.835Z,11.70
2018-10-09T00:03:29.044Z,11.79
2018-10-09T00:05:41.271Z,11.84
2018-10-09T00:07:53.570Z,11.80
2018-10-09T00:10:05.853Z,11.71
2018-10-09T00:12:18.059Z,11.68
2018-10-09T00:14:30.271Z,11.64
2018-10-09T00:16:42.479Z,11.68
2018-10-09T00:18:54.721Z,11.75
2018-10-09T00:21:07.006Z,11.82
2018-10-09T00:23:19.175Z,11.84
2018-10-09T00:25:31.398Z,11.77
2018-10-09T00:27:43.555Z,11.67
2018-10-09T00:29:56.031Z,11.62
2018-10-09T00:32:08.276Z,11.56
2018-10-09T00:34:20.485Z,11.54
2018-10-09T00:36:32.806Z,11.53
2018-10-09T00:38:45.043Z,11.49
2018-10-09T00:40:57.295Z,11.46
2018-10-09T00:43:09.582Z,11.37
2018-10-09T00:45:21.780Z,11.27
2018-10-09T00:47:33.990Z,11.24
2018-10-09T00:49:46.206Z,11.26
2018-10-09T00:51:58.425Z,11.30
2018-10-09T00:54:10.636Z,11.33
2018-10-09T00:56:22.870Z,11.35
2018-10-09T00:58:35.043Z,11.34
2018-10-09T01:00:47.298Z,11.30
2018-10-09T01:02:59.482Z,11.30
2018-10-09T01:05:11.685Z,11.36
2018-10-09T01:07:23.896Z,11.39
2018-10-09T01:09:36.079Z,11.44
2018-10-09T01:11:48.297Z,11.44
2018-10-09T01:14:00.482Z,11.46
2018-10-09T01:16:12.697Z,11.45
2018-10-09T01:18:24.919Z,11.45
2018-10-09T01:20:37.154Z,11.44
2018-10-09T01:22:49.371Z,11.47
2018-10-09T01:25:01.571Z,11.46
2018-10-09T01:27:13.823Z,11.44
2018-10-09T01:29:26.071Z,11.42
2018-10-09T01:31:38.274Z,11.42
2018-10-09T01:33:50.478Z,11.43
2018-10-09T01:36:02.692Z,11.47
2018-10-09T01:38:14.918Z,11.51
2018-10-09T01:40:27.187Z,11.50
2018-10-09T01:42:39.424Z,11.47
2018-10-09T01:44:51.693Z,11.46
2018-10-09T01:47:03.919Z,11.40
2018-10-09T01:49:16.102Z,11.34
2018-10-09T01:51:28.274Z,11.28
2018-10-09T01:53:40.496Z,11.18
2018-10-09T01:55:52.677Z,11.12
2018-10-09T01:58:04.922Z,11.09
2018-10-09T02:00:17.215Z,11.05
2018-10-09T02:02:29.462Z,10.94
2018-10-09T02:04:41.670Z,10.92
2018-10-09T02:06:53.869Z,10.90
2018-10-09T02:09:07.319Z,10.85
2018-10-09T02:11:19.506Z,10.82
2018-10-09T02:13:31.674Z,10.72
2018-10-09T02:15:43.888Z,10.76
2018-10-09T02:17:56.071Z,10.82
2018-10-09T02:20:08.314Z,10.85
2018-10-09T02:22:20.500Z,10.86
2018-10-09T02:24:32.708Z,10.85
2018-10-09T02:26:44.928Z,10.84
2018-10-09T02:28:57.085Z,10.90
2018-10-09T02:31:09.287Z,10.92
2018-10-09T02:33:21.457Z,10.90
2018-10-09T02:35:33.670Z,10.92
2018-10-09T02:37:45.863Z,10.92
2018-10-09T02:39:58.044Z,10.93
2018-10-09T02:42:10.324Z,10.96
2018-10-09T02:44:22.505Z,10.89
2018-10-09T02:46:34.730Z,10.81
2018-10-09T02:48:46.916Z,10.69
2018-10-09T02:50:59.117Z,10.65
2018-10-09T02:53:11.310Z,10.67
2018-10-09T02:55:23.495Z,10.72
2018-10-09T02:57:35.930Z,10.71
2018-10-09T02:59:48.125Z,10.69
2018-10-09T03:02:00.372Z,10.68
2018-10-09T03:04:12.582Z,10.64
2018-10-09T03:06:24.808Z,10.64
2018-10-09T03:08:37.109Z,10.66
2018-10-09T03:10:49.243Z,10.65
2018-10-09T03:13:01.464Z,10.64
2018-10-09T03:15:13.643Z,10.64
2018-10-09T03:17:25.876Z,10.55
2018-10-09T03:19:38.099Z,10.48
2018-10-09T03:21:50.294Z,10.45
2018-10-09T03:24:02.538Z,10.39
2018-10-09T03:26:14.715Z,10.29
2018-10-09T03:28:26.994Z,10.24
2018-10-09T03:30:39.204Z,10.22
2018-10-09T03:32:51.439Z,10.29
2018-10-09T03:35:03.752Z,10.34
2018-10-09T03:37:16.024Z,10.38
2018-10-09T03:39:28.244Z,10.39
2018-10-09T03:41:40.426Z,10.40
2018-10-09T03:43:52.638Z,10.42
2018-10-09T03:46:04.844Z,10.44
2018-10-09T03:48:17.026Z,10.44
2018-10-09T03:50:29.250Z,10.46
2018-10-09T03:52:41.438Z,10.40
2018-10-09T03:54:53.640Z,10.38
2018-10-09T03:57:05.863Z,10.34
2018-10-09T03:59:18.120Z,10.31
2018-10-09T04:01:30.369Z,10.32
2018-10-09T04:03:42.546Z,10.31
2018-10-09T04:05:54.775Z,10.27
2018-10-09T04:08:06.983Z,10.25
2018-10-09T04:10:19.222Z,10.28
2018-10-09T04:12:31.435Z,10.28
2018-10-09T04:14:43.598Z,10.25
2018-10-09T04:16:55.831Z,10.21
2018-10-09T04:19:08.043Z,10.16
2018-10-09T04:21:20.231Z,10.15
2018-10-09T04:23:32.418Z,10.16
2018-10-09T04:25:44.612Z,10.16
2018-10-09T04:27:56.854Z,10.19
2018-10-09T04:30:09.110Z,10.20
2018-10-09T04:32:21.363Z,10.24
2018-10-09T04:34:33.543Z,10.29
2018-10-09T04:36:45.794Z,10.36
2018-10-09T04:38:58.006Z,10.39
2018-10-09T04:41:10.255Z,10.40
2018-10-09T04:43:22.486Z,10.34
2018-10-09T04:45:34.741Z,10.30
2018-10-09T04:47:46.922Z,10.29
2018-10-09T04:49:59.125Z,10.27
2018-10-09T04:52:11.375Z,10.22
2018-10-09T04:54:23.671Z,10.17
2018-10-09T04:56:35.830Z,10.12
2018-10-09T04:58:48.050Z,10.19
2018-10-09T05:01:00.207Z,10.23
2018-10-09T05:03:12.419Z,10.31
2018-10-09T05:05:24.607Z,10.36
2018-10-09T05:07:36.820Z,10.42
2018-10-09T05:09:49.014Z,10.49
2018-10-09T05:12:01.207Z,10.55
2018-10-09T05:14:13.419Z,10.64
2018-10-09T05:16:25.606Z,10.66
2018-10-09T05:18:37.854Z,10.70
2018-10-09T05:20:50.042Z,10.74
2018-10-09T05:23:02.242Z,10.83
2018-10-09T05:25:14.454Z,10.88
2018-10-09T05:27:26.683Z,10.89
2018-10-09T05:29:38.923Z,10.94
2018-10-09T05:31:51.103Z,10.99
2018-10-09T05:34:03.314Z,11.02
2018-10-09T05:36:15.543Z,11.08
2018-10-09T05:38:27.717Z,11.15
2018-10-09T05:40:39.935Z,11.20
2018-10-09T05:43:28.678Z,11.25
2018-10-09T05:45:41.087Z,11.30
2018-10-09T05:47:53.294Z,11.34
2018-10-09T05:50:06.908Z,11.39
2018-10-09T05:52:19.082Z,11.42
2018-10-09T05:54:31.317Z,11.49
2018-10-09T05:56:43.591Z,11.53
2018-10-09T05:58:55.768Z,11.57
2018-10-09T06:01:07.987Z,11.59
2018-10-09T06:03:20.251Z,11.59
2018-10-09T06:05:32.479Z,11.61
2018-10-09T06:07:44.701Z,11.62
2018-10-09T06:09:56.913Z,11.63
2018-10-09T06:12:09.122Z,11.65
2018-10-09T06:14:21.303Z,11.68
2018-10-09T06:16:33.496Z,11.70
2018-10-09T06:18:45.702Z,11.73
2018-10-09T06:20:57.887Z,11.77
2018-10-09T06:23:10.131Z,11.83
2018-10-09T06:25:22.327Z,11.88
2018-10-09T06:27:34.563Z,11.95
2018-10-09T06:29:46.751Z,12.00
2018-10-09T06:31:58.955Z,12.07
2018-10-09T06:34:11.233Z,12.14
2018-10-09T06:36:23.343Z,12.26
2018-10-09T06:38:36.027Z,12.38
2018-10-09T06:40:48.238Z,12.49
2018-10-09T06:43:00.431Z,12.57
2018-10-09T06:45:12.674Z,12.68
2018-10-09T06:47:25.088Z,12.76
2018-10-09T06:49:37.282Z,12.85
2018-10-09T06:51:49.507Z,12.93
2018-10-09T06:54:01.848Z,13.02
2018-10-09T06:56:13.931Z,13.12
2018-10-09T06:58:26.190Z,13.24
2018-10-09T07:00:38.415Z,13.36
2018-10-09T07:02:50.614Z,13.53
2018-10-09T07:05:02.904Z,13.69
2018-10-09T07:07:15.135Z,13.87
2018-10-09T07:09:27.518Z,13.95
2018-10-09T07:11:39.645Z,14.00
2018-10-09T07:13:51.999Z,14.08
2018-10-09T07:16:04.187Z,14.21
2018-10-09T07:18:16.375Z,14.28
2018-10-09T07:20:28.607Z,14.35
2018-10-09T07:22:40.792Z,14.46
2018-10-09T07:24:53.027Z,14.55
2018-10-09T07:27:05.392Z,14.56
2018-10-09T07:29:17.586Z,14.61
2018-10-09T07:31:29.815Z,14.66
2018-10-09T07:33:42.030Z,14.69
2018-10-09T07:35:54.249Z,14.68
2018-10-09T07:38:06.495Z,14.68
2018-10-09T07:40:18.708Z,14.73
2018-10-09T07:42:30.949Z,14.73
2018-10-09T07:44:43.130Z,14.73
2018-10-09T07:46:55.398Z,14.75
2018-10-09T07:49:07.667Z,14.79
2018-10-09T07:51:19.904Z,14.87
2018-10-09T07:53:32.125Z,14.99
2018-10-09T07:55:44.327Z,15.16
2018-10-09T07:57:56.599Z,15.25
2018-10-09T08:00:08.799Z,15.44
2018-10-09T08:02:21.053Z,15.54
2018-10-09T08:04:33.305Z,15.61
2018-10-09T08:06:45.455Z,15.63
2018-10-09T08:08:57.680Z,15.71
2018-10-09T08:11:09.931Z,15.90
2018-10-09T08:13:22.138Z,16.13
2018-10-09T08:15:34.327Z,16.33
2018-10-09T08:17:46.587Z,16.60
2018-10-09T08:19:58.786Z,16.85
2018-10-09T08:22:11.008Z,17.11
2018-10-09T08:24:23.287Z,17.23
2018-10-09T08:26:35.527Z,17.35
2018-10-09T08:28:47.729Z,17.46
2018-10-09T08:31:00.116Z,17.57
2018-10-09T08:33:12.328Z,17.79
2018-10-09T08:35:24.507Z,18.05
2018-10-09T08:37:36.777Z,18.17
2018-10-09T08:39:48.997Z,18.31
2018-10-09T08:42:01.269Z,18.39
2018-10-09T08:44:13.480Z,18.58
2018-10-09T08:46:25.863Z,18.78
2018-10-09T08:48:37.972Z,19.01
2018-10-09T08:50:50.174Z,19.18
2018-10-09T08:53:02.375Z,19.20
2018-10-09T08:55:14.695Z,19.35
2018-10-09T08:57:26.989Z,19.56
2018-10-09T08:59:39.163Z,19.77
2018-10-09T09:01:51.342Z,19.87
2018-10-09T09:04:03.534Z,19.89
2018-10-09T09:06:15.766Z,19.97
2018-10-09T09:08:28.045Z,20.01
2018-10-09T09:10:40.221Z,20.09
2018-10-09T09:12:52.411Z,20.16
2018-10-09T09:15:04.780Z,20.15
2018-10-09T09:17:16.996Z,20.22
2018-10-09T09:19:29.210Z,20.23
2018-10-09T09:21:41.425Z,20.26
2018-10-09T09:23:53.634Z,20.28
2018-10-09T09:26:05.886Z,20.34
2018-10-09T09:28:18.077Z,20.32
2018-10-09T09:30:30.342Z,20.44
2018-10-09T09:32:42.507Z,20.55
2018-10-09T09:34:54.721Z,20.44
2018-10-09T09:37:06.976Z,20.51
2018-10-09T09:39:19.239Z,20.66
2018-10-09T09:41:31.457Z,20.72
2018-10-09T09:43:43.675Z,20.74
2018-10-09T09:45:55.997Z,20.71
2018-10-09T09:48:08.137Z,20.76
2018-10-09T09:50:20.334Z,20.73
2018-10-09T09:52:32.583Z,20.74
2018-10-09T09:54:44.782Z,20.82
2018-10-09T09:56:56.994Z,20.97
2018-10-09T09:59:09.300Z,21.02
2018-10-09T10:01:25.902Z,21.09
2018-10-09T10:03:39.377Z,21.15
2018-10-09T10:05:51.587Z,21.12
2018-10-09T10:08:03.829Z,21.16
2018-10-09T10:10:16.018Z,21.24
2018-10-09T10:12:28.155Z,21.34
2018-10-09T10:14:40.416Z,21.36
2018-10-09T10:16:52.663Z,21.41
2018-10-09T10:19:05.109Z,21.47
2018-10-09T10:21:17.817Z,21.45
2018-10-09T10:23:29.942Z,21.46
2018-10-09T10:25:42.135Z,21.49
2018-10-09T10:27:54.354Z,21.55
2018-10-09T10:30:06.671Z,21.55
2018-10-09T10:32:18.887Z,21.56
2018-10-09T10:34:31.120Z,21.69
2018-10-09T10:36:43.382Z,21.77
2018-10-09T10:38:55.603Z,21.81
2018-10-09T10:41:07.900Z,21.91
2018-10-09T10:43:20.085Z,21.97
2018-10-09T10:45:32.316Z,21.97
2018-10-09T10:47:44.513Z,22.06
2018-10-09T10:49:56.743Z,22.13
2018-10-09T10:52:08.992Z,22.07
2018-10-09T10:54:21.211Z,22.18
2018-10-09T10:56:33.987Z,22.12
2018-10-09T10:58:46.556Z,22.13
2018-10-09T11:00:58.767Z,22.19
2018-10-09T11:03:10.986Z,22.28
2018-10-09T11:05:23.572Z,22.30
2018-10-09T11:07:35.770Z,22.34
2018-10-09T11:09:48.021Z,22.31
2018-10-09T11:12:00.256Z,22.23
2018-10-09T11:14:12.466Z,22.13
2018-10-09T11:16:24.703Z,22.12
2018-10-09T11:18:37.170Z,22.07
2018-10-09T11:20:49.461Z,21.99
2018-10-09T11:23:01.694Z,22.03
2018-10-09T11:25:13.910Z,22.00
2018-10-09T11:27:26.149Z,21.94
2018-10-09T11:29:38.684Z,21.98
2018-10-09T11:31:50.924Z,22.05
2018-10-09T11:34:03.190Z,22.17
2018-10-09T11:36:15.447Z,22.25
2018-10-09T11:38:27.732Z,22.27
2018-10-09T11:40:40.174Z,22.32
2018-10-09T11:42:52.577Z,22.41
2018-10-09T11:45:04.913Z,22.46
2018-10-09T11:47:17.136Z,22.41
2018-10-09T11:49:29.330Z,22.49
2018-10-09T11:51:41.633Z,22.56
2018-10-09T11:53:53.914Z,22.57
2018-10-09T11:56:06.155Z,22.53
2018-10-09T11:58:18.402Z,22.59
2018-10-09T12:00:33.606Z,22.52
2018-10-09T12:02:45.995Z,22.55
2018-10-09T12:04:58.162Z,22.58
2018-10-09T12:07:10.419Z,22.60
2018-10-09T12:09:22.683Z,22.58
2018-10-09T12:11:34.898Z,22.60
2018-10-09T12:13:47.146Z,22.57
2018-10-09T12:15:59.440Z,22.57
2018-10-09T12:18:11.673Z,22.50
2018-10-09T12:20:23.986Z,22.46
2018-10-09T12:22:36.204Z,22.44
2018-10-09T12:24:48.442Z,22.43
2018-10-09T12:27:02.658Z,22.37
2018-10-09T12:29:14.856Z,22.33
2018-10-09T12:31:27.081Z,22.32
2018-10-09T12:33:39.322Z,22.34
2018-10-09T12:35:51.535Z,22.41
2018-10-09T12:38:03.750Z,22.42
2018-10-09T12:40:16.007Z,22.46
2018-10-09T12:42:28.280Z,22.45
2018-10-09T12:44:40.525Z,22.40
2018-10-09T12:46:52.807Z,22.34
2018-10-09T12:49:05.008Z,22.29
2018-10-09T12:51:17.240Z,22.30
2018-10-09T12:53:29.528Z,22.30
2018-10-09T12:55:41.730Z,22.30
2018-10-09T12:57:53.948Z,22.41
2018-10-09T13:00:06.280Z,22.43
2018-10-09T13:02:18.514Z,22.38
2018-10-09T13:04:30.856Z,22.35
2018-10-09T13:06:43.119Z,22.36
2018-10-09T13:08:55.299Z,22.36
2018-10-09T13:11:08.502Z,22.38
2018-10-09T13:13:20.739Z,22.37
2018-10-09T13:15:32.961Z,22.32
2018-10-09T13:17:45.257Z,22.32
2018-10-09T13:19:57.425Z,22.28
2018-10-09T13:22:09.930Z,22.20
2018-10-09T13:24:21.933Z,22.18
2018-10-09T13:26:34.119Z,22.10
2018-10-09T13:28:46.347Z,22.08
2018-10-09T13:31:00.580Z,22.04
2018-10-09T13:33:15.751Z,22.04
2018-10-09T13:35:27.967Z,22.13
2018-10-09T13:37:40.263Z,22.14
2018-10-09T13:39:52.510Z,22.14
2018-10-09T13:42:04.787Z,22.16
2018-10-09T13:44:16.968Z,22.20
2018-10-09T13:46:29.212Z,22.26
2018-10-09T13:48:41.430Z,22.29
2018-10-09T13:50:53.771Z,22.33
2018-10-09T13:53:07.867Z,22.33
2018-10-09T13:55:20.167Z,22.32
2018-10-09T13:57:32.311Z,22.32
2018-10-09T13:59:45.527Z,22.37
2018-10-09T14:01:57.739Z,22.35
2018-10-09T14:04:09.966Z,22.37
2018-10-09T14:06:22.208Z,22.46
2018-10-09T14:08:34.392Z,22.51
2018-10-09T14:13:12.178Z,22.49
2018-10-09T14:15:24.422Z,22.49
2018-10-09T14:17:36.669Z,22.55
2018-10-09T14:19:48.949Z,22.57
2018-10-09T14:22:01.158Z,22.61
2018-10-09T14:24:13.407Z,22.56
2018-10-09T14:26:25.650Z,22.58
2018-10-09T14:28:37.868Z,22.55
2018-10-09T14:30:50.099Z,22.53
2018-10-09T14:33:02.322Z,22.54
2018-10-09T14:35:14.572Z,22.52
2018-10-09T14:37:26.789Z,22.53
2018-10-09T14:39:39.040Z,22.50
2018-10-09T14:41:52.142Z,22.43
2018-10-09T14:44:04.380Z,22.42
2018-10-09T14:46:16.614Z,22.37
2018-10-09T14:48:28.890Z,22.30
2018-10-09T14:50:41.106Z,22.23
2018-10-09T14:52:53.364Z,22.20
2018-10-09T14:55:06.455Z,22.14
2018-10-09T14:57:18.768Z,22.14
2018-10-09T14:59:30.967Z,22.06
2018-10-09T15:01:43.187Z,21.98
2018-10-09T15:03:55.441Z,21.84
2018-10-09T15:06:07.672Z,21.80
2018-10-09T15:08:20.833Z,21.72
2018-10-09T15:10:33.066Z,21.71
2018-10-09T15:12:46.353Z,21.66
2018-10-09T15:14:59.589Z,21.69
2018-10-09T15:17:12.772Z,21.65
2018-10-09T15:19:30.888Z,21.56
2018-10-09T15:21:43.146Z,21.53
2018-10-09T15:23:55.432Z,21.56
2018-10-09T15:26:08.507Z,21.49
2018-10-09T15:28:20.791Z,21.48
2018-10-09T15:30:36.885Z,21.39
2018-10-09T15:32:49.090Z,21.32
2018-10-09T15:35:01.393Z,21.25
2018-10-09T15:37:13.642Z,21.26
2018-10-09T15:39:25.955Z,21.29
2018-10-09T15:41:39.262Z,21.37
2018-10-09T15:43:51.539Z,21.36
2018-10-09T15:46:03.834Z,21.35
2018-10-09T15:48:16.043Z,21.33
2018-10-09T15:50:28.310Z,21.31
2018-10-09T15:52:40.590Z,21.24
2018-10-09T15:54:52.846Z,21.16
2018-10-09T15:57:05.107Z,21.11
2018-10-09T15:59:17.327Z,21.07
2018-10-09T16:01:29.585Z,21.07
2018-10-09T16:03:41.829Z,21.04
2018-10-09T16:05:54.088Z,20.97
2018-10-09T16:08:06.368Z,20.95
2018-10-09T16:10:18.589Z,20.86
2018-10-09T16:12:30.835Z,20.83
2018-10-09T16:14:43.105Z,20.76
2018-10-09T16:17:00.236Z,20.70
2018-10-09T16:19:12.503Z,20.63
2018-10-09T16:21:24.803Z,20.55
2018-10-09T16:23:37.048Z,20.46
2018-10-09T16:25:49.283Z,20.47
2018-10-09T16:28:01.485Z,20.45
2018-10-09T16:30:13.815Z,20.31
2018-10-09T16:32:26.143Z,20.25
2018-10-09T16:34:38.294Z,20.21
2018-10-09T16:36:50.538Z,20.14
2018-10-09T16:39:04.616Z,19.98
2018-10-09T16:41:16.874Z,19.87
2018-10-09T16:43:29.135Z,19.81
2018-10-09T16:45:41.447Z,19.72
2018-10-09T16:47:53.683Z,19.63
2018-10-09T16:50:06.003Z,19.52
2018-10-09T16:52:18.259Z,19.41
2018-10-09T16:54:30.580Z,19.28
2018-10-09T16:56:42.831Z,19.24
2018-10-09T16:58:55.167Z,19.22
2018-10-09T17:01:07.423Z,19.13
2018-10-09T17:03:19.699Z,19.03
2018-10-09T17:05:31.982Z,18.88
2018-10-09T17:07:44.251Z,18.67
2018-10-09T17:09:56.524Z,18.52
2018-10-09T17:12:08.748Z,18.42
2018-10-09T17:14:21.025Z,18.25
2018-10-09T17:16:33.256Z,18.21
2018-10-09T17:18:45.543Z,18.13
2018-10-09T17:20:57.814Z,18.12
2018-10-09T17:23:10.078Z,17.95
2018-10-09T17:25:22.534Z,17.88
2018-10-09T17:27:34.799Z,17.80
2018-10-09T17:29:47.011Z,17.73
2018-10-09T17:32:00.249Z,17.66
2018-10-09T17:34:12.558Z,17.66
2018-10-09T17:36:24.787Z,17.52
2018-10-09T17:38:37.103Z,17.46
2018-10-09T17:40:49.376Z,17.42
2018-10-09T17:43:01.591Z,17.33
2018-10-09T17:45:13.869Z,17.35
2018-10-09T17:47:26.105Z,17.31
2018-10-09T17:49:39.800Z,17.21
2018-10-09T17:51:52.035Z,17.16
2018-10-09T17:54:04.316Z,17.06
2018-10-09T17:56:16.578Z,17.04
2018-10-09T17:58:28.830Z,17.04
2018-10-09T18:00:41.139Z,16.96
2018-10-09T18:02:54.291Z,16.93
2018-10-09T18:05:06.623Z,16.95
2018-10-09T18:07:18.937Z,16.89
2018-10-09T18:09:31.204Z,16.86
2018-10-09T18:11:43.515Z,16.85
2018-10-09T18:13:55.748Z,16.79
2018-10-09T18:16:08.322Z,16.75
2018-10-09T18:18:20.615Z,16.73
2018-10-09T18:20:32.849Z,16.74
2018-10-09T18:22:45.123Z,16.72
2018-10-09T18:24:57.370Z,16.62
2018-10-09T18:27:09.688Z,16.53
2018-10-09T18:29:21.896Z,16.56
2018-10-09T18:31:34.239Z,16.52
2018-10-09T18:33:46.518Z,16.52
2018-10-09T18:35:58.802Z,16.52
2018-10-09T18:38:11.115Z,16.47
2018-10-09T18:40:23.374Z,16.41
2018-10-09T18:42:35.660Z,16.37
2018-10-09T18:44:47.898Z,16.34
2018-10-09T18:47:00.206Z,16.34
2018-10-09T18:49:12.454Z,16.32
2018-10-09T18:51:24.792Z,16.28
2018-10-09T18:53:37.083Z,16.26
2018-10-09T18:55:49.306Z,16.24
2018-10-09T18:58:01.640Z,16.20
2018-10-09T19:00:14.223Z,16.17
2018-10-09T19:02:26.494Z,16.18
2018-10-09T19:04:38.813Z,16.18
2018-10-09T19:06:51.008Z,16.14
2018-10-09T19:09:05.836Z,16.10
2018-10-09T19:11:22.316Z,16.09
2018-10-09T19:13:34.650Z,16.02
2018-10-09T19:15:46.902Z,15.99
2018-10-09T19:17:59.334Z,15.96
2018-10-09T19:20:11.500Z,15.91
2018-10-09T19:22:23.877Z,15.92
2018-10-09T19:24:36.178Z,15.83
2018-10-09T19:26:48.466Z,15.79
2018-10-09T19:29:00.688Z,15.77
2018-10-09T19:31:13.052Z,15.75
2018-10-09T19:33:25.430Z,15.73
2018-10-09T19:35:37.717Z,15.72
2018-10-09T19:37:50.095Z,15.64
2018-10-09T19:40:02.537Z,15.59
2018-10-09T19:42:14.921Z,15.62
2018-10-09T19:44:27.227Z,15.63
2018-10-09T19:46:39.499Z,15.59
2018-10-09T19:48:51.797Z,15.51
2018-10-09T19:51:04.337Z,15.45
2018-10-09T19:53:16.412Z,15.45
2018-10-09T19:55:28.678Z,15.41
2018-10-09T19:57:40.982Z,15.39
2018-10-09T19:59:53.274Z,15.36
2018-10-09T20:02:05.831Z,15.28
2018-10-09T20:04:18.095Z,15.19
2018-10-09T20:06:30.798Z,15.19
2018-10-09T20:08:43.051Z,15.03
2018-10-09T20:10:55.291Z,14.90
2018-10-09T20:13:07.579Z,14.78
2018-10-09T20:15:19.800Z,14.73
2018-10-09T20:17:32.059Z,14.76
2018-10-09T20:19:44.332Z,14.82
2018-10-09T20:21:56.599Z,14.83
2018-10-09T20:24:08.864Z,14.85
2018-10-09T20:26:21.108Z,14.86
2018-10-09T20:28:33.334Z,14.85
2018-10-09T20:30:45.615Z,14.84
2018-10-09T20:32:57.968Z,14.83
2018-10-09T20:35:10.214Z,14.78
2018-10-09T20:37:22.570Z,14.66
2018-10-09T20:39:34.840Z,14.45
2018-10-09T20:41:47.135Z,14.40
2018-10-09T20:43:59.339Z,14.31
2018-10-09T20:46:11.566Z,14.20
2018-10-09T20:48:23.855Z,14.12
2018-10-09T20:50:36.143Z,14.06
2018-10-09T20:52:48.448Z,13.90
2018-10-09T20:55:00.697Z,13.78
2018-10-09T20:57:13.019Z,13.76
2018-10-09T20:59:25.238Z,13.76
2018-10-09T21:01:37.527Z,13.73
2018-10-09T21:03:49.826Z,13.78
2018-10-09T21:06:02.178Z,13.84
2018-10-09T21:08:14.477Z,13.93
2018-10-09T21:10:26.708Z,13.95
2018-10-09T21:12:39.025Z,14.01
2018-10-09T21:14:51.319Z,14.07
2018-10-09T21:17:03.560Z,14.10
2018-10-09T21:19:15.844Z,14.11
2018-10-09T21:21:28.081Z,14.00
2018-10-09T21:23:40.341Z,13.84
2018-10-09T21:25:52.658Z,13.71
2018-10-09T21:28:04.942Z,13.62
2018-10-09T21:30:17.203Z,13.60
2018-10-09T21:32:29.532Z,13.61
2018-10-09T21:34:41.794Z,13.62
2018-10-09T21:36:54.060Z,13.63
2018-10-09T21:39:07.124Z,13.54
2018-10-09T21:41:19.418Z,13.49
2018-10-09T21:43:31.654Z,13.47
2018-10-09T21:45:43.943Z,13.48
2018-10-09T21:48:01.391Z,13.46
2018-10-09T21:50:13.641Z,13.49
2018-10-09T21:52:25.891Z,13.45
2018-10-09T21:54:38.121Z,13.41
2018-10-09T21:56:50.424Z,13.38
2018-10-09T21:59:02.675Z,13.36
2018-10-09T22:01:14.871Z,13.31
2018-10-09T22:03:27.131Z,13.23
2018-10-09T22:05:39.396Z,13.17
2018-10-09T22:07:51.755Z,13.12
2018-10-09T22:10:04.275Z,13.04
2018-10-09T22:12:16.500Z,13.02
2018-10-09T22:14:28.724Z,12.99
2018-10-09T22:16:41.023Z,12.98
2018-10-09T22:18:53.238Z,12.99
2018-10-09T22:21:05.584Z,12.96
2018-10-09T22:23:17.797Z,12.88
2018-10-09T22:25:30.056Z,12.81
2018-10-09T22:27:42.307Z,12.77
2018-10-09T22:29:54.794Z,12.78
2018-10-09T22:32:07.016Z,12.76
2018-10-09T22:34:19.296Z,12.73
2018-10-09T22:36:31.550Z,12.70
2018-10-09T22:38:43.795Z,12.68
2018-10-09T22:40:56.023Z,12.65
2018-10-09T22:43:08.265Z,12.58
2018-10-09T22:45:20.466Z,12.50
2018-10-09T22:47:32.731Z,12.47
2018-10-09T22:49:44.909Z,12.50
2018-10-09T22:51:57.168Z,12.53
2018-10-09T22:54:09.424Z,12.51
2018-10-09T22:56:21.671Z,12.47
2018-10-09T22:58:33.894Z,12.44
2018-10-09T23:00:46.114Z,12.43
2018-10-09T23:02:58.316Z,12.39
2018-10-09T23:05:10.777Z,12.33
2018-10-09T23:07:22.947Z,12.28
2018-10-09T23:09:35.187Z,12.20
2018-10-09T23:11:47.406Z,12.17
2018-10-09T23:13:59.668Z,12.14
2018-10-09T23:16:11.883Z,12.11
2018-10-09T23:18:24.127Z,12.06
2018-10-09T23:20:36.446Z,12.03
2018-10-09T23:22:48.780Z,12.00
2018-10-09T23:25:01.038Z,11.95
2018-10-09T23:27:13.283Z,11.91
2018-10-09T23:29:25.558Z,11.84
2018-10-09T23:31:37.793Z,11.81
2018-10-09T23:33:50.031Z,11.75
2018-10-09T23:36:02.557Z,11.73
2018-10-09T23:38:14.818Z,11.67
2018-10-09T23:40:27.071Z,11.57
2018-10-09T23:42:39.367Z,11.53
2018-10-09T23:44:51.596Z,11.53
2018-10-09T23:47:03.831Z,11.53
2018-10-09T23:49:16.081Z,11.47
2018-10-09T23:51:28.325Z,11.45
2018-10-09T23:53:40.534Z,11.41
2018-10-09T23:55:52.813Z,11.39
2018-10-09T23:58:05.444Z,11.35
